Current | Forecast
Updated: 1:00 PM +07 on May 01, 2017
Observed at Plotnikovo, Russia
Temperature 37°F
Windchill 30°F
Humidity 41%
Dew Point 16°F
Wind WSW at 11 mph
Pressure 30.04 in (Steady)
Conditions Clear
Visibility -
UV N/A
Clouds
Yesterday's Maximum 46°F
Yesterday's Minimum 37°F approx.
Yesterday's Heating Degree Days 23 approx.
Sunrise5:38 AM +07
Sunset9:01 PM +07
Moon Rise9:47 AM +07
Moon Set1:31 AM +07
Moon PhaseMoon Phase
Waxing Crescent
Raw METARMETAR UNTT 010600Z 25005MPS CAVOK 03/M09 Q1017 R21/190055 NOSIG RMK QFE748


Monday
. High: 55° F.
Tuesday
. High: 64° F.
Wednesday
. High: 59° F.
Thursday
. High: 51° F.
Friday
. High: 55° F.
Saturday
. High: 66° F.
Sunday
. High: 77° F.
Monday
. High: 64° F.

Units: English | Metric

Find the Weather for any City, State or Zipcode, or Country:

U.S. State List | Severe Weather | Tropical Storms | Ski Conditions
United States | Canada | Central America | South America | Asia | Europe | Australia | Africa | Islands

Weather Underground

© Copyright 2017
The Weather Company, LLC